createdAt,value
2022-12-27T00:00:21.577Z,53.41
2022-12-27T00:02:48.054Z,53.19
2022-12-27T00:05:15.539Z,53.35
2022-12-27T00:07:42.370Z,53.33
2022-12-27T00:10:09.112Z,53.29
2022-12-27T00:12:35.436Z,53.22
2022-12-27T00:15:01.953Z,53.10
2022-12-27T00:17:29.176Z,53.04
2022-12-27T00:19:55.503Z,53.19
2022-12-27T00:22:21.861Z,53.05
2022-12-27T00:24:48.198Z,53.03
2022-12-27T00:27:14.540Z,53.20
2022-12-27T00:29:40.868Z,53.05
2022-12-27T00:32:07.224Z,53.18
2022-12-27T00:34:33.547Z,53.13
2022-12-27T00:36:59.880Z,53.20
2022-12-27T00:39:26.600Z,53.03
2022-12-27T00:41:52.924Z,53.14
2022-12-27T00:44:19.263Z,53.13
2022-12-27T00:46:45.600Z,53.14
2022-12-27T00:49:11.941Z,53.30
2022-12-27T00:51:38.484Z,53.45
2022-12-27T00:54:04.931Z,53.42
2022-12-27T00:56:32.789Z,53.51
2022-12-27T00:58:59.809Z,53.40
2022-12-27T01:01:26.672Z,53.28
2022-12-27T01:03:53.120Z,53.44
2022-12-27T01:06:22.598Z,53.46
2022-12-27T01:08:48.927Z,53.48
2022-12-27T01:11:15.617Z,53.50
2022-12-27T01:13:41.949Z,53.55
2022-12-27T01:16:11.517Z,53.57
2022-12-27T01:18:37.882Z,53.54
2022-12-27T01:21:05.207Z,53.57
2022-12-27T01:23:31.884Z,53.27
2022-12-27T01:26:01.503Z,53.36
2022-12-27T01:28:27.832Z,53.18
2022-12-27T01:30:54.167Z,53.02
2022-12-27T01:33:20.516Z,53.19
2022-12-27T01:35:46.850Z,53.17
2022-12-27T01:38:13.192Z,53.16
2022-12-27T01:40:39.526Z,53.20
2022-12-27T01:43:05.858Z,53.29
2022-12-27T01:45:33.054Z,53.22
2022-12-27T01:48:13.074Z,53.08
2022-12-27T01:50:40.833Z,53.13
2022-12-27T01:53:17.336Z,53.23
2022-12-27T01:55:53.650Z,53.29
2022-12-27T01:58:23.275Z,53.26
2022-12-27T02:00:49.758Z,53.11
2022-12-27T02:03:19.062Z,53.18
2022-12-27T02:05:45.763Z,52.96
2022-12-27T02:08:16.231Z,53.02
2022-12-27T02:10:42.575Z,52.83
2022-12-27T02:13:09.044Z,52.99
2022-12-27T02:15:35.838Z,52.83
2022-12-27T02:18:02.183Z,52.70
2022-12-27T02:20:32.256Z,52.89
2022-12-27T02:23:26.276Z,52.99
2022-12-27T02:26:11.239Z,52.93
2022-12-27T02:28:54.381Z,52.95
2022-12-27T02:31:31.209Z,52.95
2022-12-27T02:33:57.532Z,52.98
2022-12-27T02:36:24.524Z,52.93
2022-12-27T02:55:05.532Z,52.70
2022-12-27T02:57:42.446Z,52.75
2022-12-27T03:00:28.832Z,52.79
2022-12-27T03:03:23.251Z,52.75
2022-12-27T03:06:21.856Z,52.60
2022-12-27T03:08:53.974Z,52.88
2022-12-27T03:11:39.092Z,52.74
2022-12-27T03:14:25.853Z,52.81
2022-12-27T03:16:56.207Z,52.68
2022-12-27T03:19:49.379Z,52.72
2022-12-27T03:22:34.258Z,52.72
2022-12-27T03:25:19.057Z,52.80
2022-12-27T03:27:45.405Z,52.97
2022-12-27T03:30:30.315Z,52.73
2022-12-27T03:33:15.306Z,52.64
2022-12-27T03:35:42.195Z,52.58
2022-12-27T03:38:08.531Z,52.63
2022-12-27T03:40:34.826Z,52.69
2022-12-27T03:43:11.764Z,52.43
2022-12-27T03:46:04.007Z,52.56
2022-12-27T03:48:30.713Z,52.32
2022-12-27T03:50:57.457Z,52.47
2022-12-27T03:53:25.722Z,52.49
2022-12-27T03:55:52.106Z,52.41
2022-12-27T03:58:18.435Z,52.64
2022-12-27T04:00:44.770Z,52.53
2022-12-27T04:03:11.158Z,52.51
2022-12-27T04:05:37.533Z,52.55
2022-12-27T04:08:22.591Z,52.47
2022-12-27T04:11:07.528Z,52.41
2022-12-27T04:13:53.057Z,52.45
2022-12-27T04:16:38.158Z,52.50
2022-12-27T04:19:23.186Z,52.54
2022-12-27T04:22:08.085Z,52.40
2022-12-27T04:24:52.954Z,52.34
2022-12-27T04:27:38.035Z,52.43
2022-12-27T04:30:23.140Z,52.38
2022-12-27T04:33:08.037Z,52.37
2022-12-27T04:35:34.391Z,52.29
2022-12-27T04:38:00.728Z,52.29
2022-12-27T04:40:45.928Z,52.23
2022-12-27T04:43:30.859Z,52.37
2022-12-27T04:46:16.053Z,52.36
2022-12-27T04:49:00.801Z,52.34
2022-12-27T04:51:45.599Z,52.31
2022-12-27T04:54:38.816Z,52.29
2022-12-27T04:57:05.186Z,52.17
2022-12-27T04:59:50.242Z,52.21
2022-12-27T05:02:16.824Z,52.21
2022-12-27T05:04:43.189Z,52.19
2022-12-27T05:07:28.904Z,52.05
2022-12-27T05:10:14.084Z,52.09
2022-12-27T05:12:58.922Z,52.21
2022-12-27T05:15:25.230Z,52.19
2022-12-27T05:17:51.556Z,52.04
2022-12-27T05:20:17.873Z,52.13
2022-12-27T05:23:02.981Z,52.08
2022-12-27T05:25:35.115Z,52.11
2022-12-27T05:28:01.698Z,52.15
2022-12-27T05:30:28.012Z,51.96
2022-12-27T05:32:54.750Z,52.15
2022-12-27T05:35:21.055Z,52.08
2022-12-27T05:37:51.536Z,51.93
2022-12-27T05:40:23.979Z,51.92
2022-12-27T05:42:50.360Z,52.09
2022-12-27T05:45:16.746Z,52.03
2022-12-27T05:47:43.080Z,51.99
2022-12-27T05:50:09.530Z,52.21
2022-12-27T05:52:40.797Z,51.97
2022-12-27T05:55:07.660Z,51.95
2022-12-27T05:57:34.087Z,51.91
2022-12-27T06:00:00.461Z,51.97
2022-12-27T06:02:26.918Z,51.77
2022-12-27T06:04:53.358Z,51.86
2022-12-27T06:07:19.682Z,51.89
2022-12-27T06:09:46.009Z,51.80
2022-12-27T06:12:12.383Z,51.82
2022-12-27T06:14:41.257Z,51.75
2022-12-27T06:17:07.613Z,51.82
2022-12-27T06:19:33.952Z,51.81
2022-12-27T06:22:00.371Z,51.80
2022-12-27T06:24:26.699Z,51.81
2022-12-27T06:26:53.048Z,51.75
2022-12-27T06:29:19.394Z,51.59
2022-12-27T06:31:46.004Z,51.76
2022-12-27T06:34:12.368Z,51.82
2022-12-27T06:36:38.693Z,51.72
2022-12-27T06:39:05.074Z,51.74
2022-12-27T06:41:31.403Z,51.67
2022-12-27T06:43:57.735Z,51.72
2022-12-27T06:46:27.086Z,51.71
2022-12-27T06:48:53.467Z,51.52
2022-12-27T06:51:19.901Z,51.52
2022-12-27T06:53:46.666Z,51.66
2022-12-27T06:56:13.834Z,51.60
2022-12-27T06:58:40.176Z,51.66
2022-12-27T07:01:07.300Z,51.64
2022-12-27T07:03:33.664Z,51.66
2022-12-27T07:06:03.489Z,51.63
2022-12-27T07:08:29.809Z,51.50
2022-12-27T07:11:03.265Z,51.48
2022-12-27T07:13:29.602Z,51.49
2022-12-27T07:15:55.972Z,51.46
2022-12-27T07:18:22.315Z,51.43
2022-12-27T07:20:48.655Z,51.54
2022-12-27T07:23:19.256Z,51.39
2022-12-27T07:25:46.134Z,51.53
2022-12-27T07:28:12.577Z,51.45
2022-12-27T07:30:42.071Z,50.68
2022-12-27T07:33:08.506Z,50.99
2022-12-27T07:35:34.839Z,50.30
2022-12-27T07:38:01.190Z,50.29
2022-12-27T07:40:27.523Z,50.31
2022-12-27T07:42:53.863Z,50.44
2022-12-27T07:45:20.183Z,50.61
2022-12-27T07:47:46.509Z,50.77
2022-12-27T07:50:12.867Z,50.90
2022-12-27T07:52:39.203Z,50.96
2022-12-27T07:55:05.711Z,50.89
2022-12-27T07:57:32.064Z,50.87
2022-12-27T07:59:58.407Z,50.83
2022-12-27T08:02:24.859Z,50.83
2022-12-27T08:04:51.433Z,50.73
2022-12-27T08:07:18.504Z,50.70
2022-12-27T08:09:45.262Z,50.76
2022-12-27T08:12:13.389Z,50.82
2022-12-27T08:14:39.951Z,50.81
2022-12-27T08:17:08.464Z,50.79
2022-12-27T08:19:34.896Z,50.88
2022-12-27T08:22:01.206Z,50.84
2022-12-27T08:24:27.681Z,50.75
2022-12-27T08:26:54.084Z,50.67
2022-12-27T08:29:20.458Z,50.87
2022-12-27T08:31:46.777Z,51.01
2022-12-27T08:34:13.111Z,50.96
2022-12-27T08:36:55.193Z,51.10
2022-12-27T08:39:21.812Z,51.09
2022-12-27T08:41:48.163Z,50.89
2022-12-27T08:44:14.503Z,51.36
2022-12-27T08:46:41.019Z,51.11
2022-12-27T08:49:07.430Z,51.30
2022-12-27T08:51:40.899Z,51.25
2022-12-27T08:54:07.682Z,51.38
2022-12-27T08:56:34.011Z,51.35
2022-12-27T08:59:00.384Z,51.27
2022-12-27T09:01:26.871Z,51.56
2022-12-27T09:03:53.288Z,51.41
2022-12-27T09:06:20.419Z,50.15
2022-12-27T09:08:47.407Z,40.16
2022-12-27T09:11:14.665Z,40.62
2022-12-27T09:13:41.236Z,38.09
2022-12-27T09:16:08.292Z,38.17
2022-12-27T09:18:34.642Z,37.81
2022-12-27T09:21:04.481Z,37.65
2022-12-27T09:23:31.137Z,37.64
2022-12-27T09:25:57.454Z,37.37
2022-12-27T09:28:23.795Z,38.41
2022-12-27T09:30:50.163Z,38.81
2022-12-27T09:33:16.530Z,39.09
2022-12-27T09:35:42.987Z,39.67
2022-12-27T09:38:09.312Z,40.13
2022-12-27T09:40:35.631Z,40.97
2022-12-27T09:43:19.464Z,41.46
2022-12-27T09:45:50.951Z,41.82
2022-12-27T09:48:21.398Z,42.01
2022-12-27T09:50:55.426Z,42.75
2022-12-27T09:53:22.262Z,42.72
2022-12-27T09:55:49.746Z,43.30
2022-12-27T09:58:22.563Z,43.69
2022-12-27T10:00:51.796Z,43.97
2022-12-27T10:03:19.895Z,44.54
2022-12-27T10:05:46.259Z,44.65
2022-12-27T10:08:21.836Z,44.93
2022-12-27T10:11:08.238Z,45.50
2022-12-27T10:13:38.691Z,45.36
2022-12-27T10:16:04.977Z,45.53
2022-12-27T10:18:38.579Z,45.65
2022-12-27T10:21:23.086Z,45.73
2022-12-27T10:23:53.036Z,46.06
2022-12-27T10:26:19.374Z,46.01
2022-12-27T10:28:46.447Z,46.13
2022-12-27T10:31:16.846Z,46.14
2022-12-27T10:33:43.617Z,46.39
2022-12-27T10:36:11.475Z,46.34
2022-12-27T10:38:37.835Z,46.45
2022-12-27T10:41:07.507Z,46.74
2022-12-27T10:43:36.509Z,46.72
2022-12-27T10:46:20.770Z,47.24
2022-12-27T10:51:45.856Z,47.32
2022-12-27T10:54:13.185Z,47.50
2022-12-27T10:56:41.372Z,47.61
2022-12-27T10:59:13.513Z,47.53
2022-12-27T11:01:39.937Z,47.78
2022-12-27T11:04:20.745Z,47.62
2022-12-27T11:06:48.779Z,47.81
2022-12-27T11:09:31.014Z,47.90
2022-12-27T11:12:16.264Z,47.99
2022-12-27T11:14:55.230Z,48.17
2022-12-27T11:17:23.539Z,48.04
2022-12-27T11:19:50.586Z,48.35
2022-12-27T11:22:22.848Z,48.24
2022-12-27T11:24:50.179Z,46.26
2022-12-27T11:27:26.031Z,45.45
2022-12-27T11:29:52.942Z,46.22
2022-12-27T11:32:19.649Z,46.90
2022-12-27T11:34:46.638Z,46.74
2022-12-27T11:37:15.509Z,47.01
2022-12-27T11:39:45.377Z,47.57
2022-12-27T11:42:32.441Z,48.29
2022-12-27T11:45:17.522Z,48.13
2022-12-27T11:47:52.119Z,47.99
2022-12-27T11:50:27.378Z,47.96
2022-12-27T11:53:05.856Z,48.02
2022-12-27T11:55:51.230Z,48.32
2022-12-27T11:58:23.362Z,47.98
2022-12-27T12:00:53.568Z,48.00
2022-12-27T12:03:31.718Z,48.25
2022-12-27T12:06:16.645Z,48.16
2022-12-27T12:08:59.767Z,48.38
2022-12-27T12:11:29.121Z,48.38
2022-12-27T12:14:04.655Z,48.75
2022-12-27T12:16:34.034Z,48.44
2022-12-27T12:19:03.261Z,48.48
2022-12-27T12:21:40.524Z,48.57
2022-12-27T12:24:25.503Z,48.81
2022-12-27T12:26:56.114Z,48.90
2022-12-27T12:29:25.661Z,48.97
2022-12-27T12:32:10.876Z,49.17
2022-12-27T12:34:42.023Z,49.19
2022-12-27T12:37:14.065Z,49.60
2022-12-27T12:39:50.974Z,50.18
2022-12-27T12:42:21.088Z,49.83
2022-12-27T12:45:00.033Z,49.52
2022-12-27T12:47:30.811Z,49.98
2022-12-27T12:50:00.048Z,49.74
2022-12-27T12:52:29.271Z,49.74
2022-12-27T12:55:13.288Z,49.69
2022-12-27T12:58:01.292Z,50.71
2022-12-27T13:00:36.475Z,50.84
2022-12-27T13:03:25.809Z,50.98
2022-12-27T13:05:53.689Z,50.83
2022-12-27T13:08:49.263Z,50.66
2022-12-27T13:11:18.587Z,51.13
2022-12-27T13:14:01.059Z,51.30
2022-12-27T13:16:30.895Z,51.31
2022-12-27T13:19:30.201Z,51.22
2022-12-27T13:22:07.246Z,51.41
2022-12-27T13:24:45.863Z,51.38
2022-12-27T13:27:41.326Z,51.37
2022-12-27T13:30:13.363Z,51.41
2022-12-27T13:32:58.626Z,51.84
2022-12-27T13:35:28.483Z,51.01
2022-12-27T13:38:03.668Z,51.08
2022-12-27T13:40:48.924Z,51.84
2022-12-27T13:43:34.639Z,51.68
2022-12-27T13:46:25.682Z,51.98
2022-12-27T13:48:56.127Z,51.50
2022-12-27T13:51:45.801Z,51.89
2022-12-27T13:54:24.448Z,51.29
2022-12-27T13:56:55.129Z,51.70
2022-12-27T13:59:26.940Z,51.67
2022-12-27T14:01:58.514Z,51.62
2022-12-27T14:04:43.897Z,52.33
2022-12-27T14:07:19.302Z,52.56
2022-12-27T14:09:55.504Z,52.82
2022-12-27T14:12:40.638Z,52.62
2022-12-27T14:15:07.201Z,52.79
2022-12-27T14:17:39.504Z,52.81
2022-12-27T14:20:08.515Z,52.82
2022-12-27T14:22:40.649Z,53.04
2022-12-27T14:25:29.883Z,52.27
2022-12-27T14:28:03.630Z,51.81
2022-12-27T14:30:46.317Z,52.08
2022-12-27T14:33:31.180Z,52.03
2022-12-27T14:36:21.227Z,52.10
2022-12-27T14:39:01.289Z,51.86
2022-12-27T14:41:46.395Z,51.77
2022-12-27T14:44:20.895Z,51.70
2022-12-27T14:46:47.152Z,51.78
2022-12-27T14:49:32.390Z,51.51
2022-12-27T14:52:17.350Z,51.62
2022-12-27T14:54:44.277Z,51.78
2022-12-27T14:57:34.028Z,52.23
2022-12-27T15:00:14.435Z,52.36
2022-12-27T15:02:44.653Z,52.41
2022-12-27T15:05:13.348Z,52.27
2022-12-27T15:07:59.851Z,52.46
2022-12-27T15:10:44.545Z,52.68
2022-12-27T15:13:14.857Z,52.24
2022-12-27T15:15:41.143Z,52.68
2022-12-27T15:18:15.539Z,52.68
2022-12-27T15:20:47.872Z,52.03
2022-12-27T15:23:14.107Z,52.89
2022-12-27T15:25:40.341Z,52.30
2022-12-27T15:28:10.130Z,52.63
2022-12-27T15:30:39.661Z,52.56
2022-12-27T15:33:13.735Z,52.26
2022-12-27T15:35:58.834Z,52.52
2022-12-27T15:38:49.643Z,52.63
2022-12-27T15:41:31.289Z,52.58
2022-12-27T15:44:00.887Z,53.04
2022-12-27T15:46:44.769Z,52.87
2022-12-27T15:49:11.022Z,52.83
2022-12-27T15:51:50.924Z,52.86
2022-12-27T15:54:20.119Z,52.90
2022-12-27T15:56:52.127Z,53.03
2022-12-27T15:59:30.866Z,52.67
2022-12-27T16:02:15.865Z,52.48
2022-12-27T16:05:14.699Z,52.44
2022-12-27T16:07:45.416Z,52.64
2022-12-27T16:10:27.060Z,52.49
2022-12-27T16:12:53.958Z,52.92
2022-12-27T16:15:35.543Z,52.47
2022-12-27T16:18:02.093Z,52.93
2022-12-27T16:20:28.513Z,52.66
2022-12-27T16:22:55.432Z,52.98
2022-12-27T16:25:30.138Z,53.04
2022-12-27T16:28:01.167Z,52.78
2022-12-27T16:30:57.229Z,52.92
2022-12-27T16:33:26.390Z,53.16
2022-12-27T16:36:03.039Z,52.98
2022-12-27T16:38:29.590Z,52.95
2022-12-27T16:40:57.212Z,52.90
2022-12-27T16:43:24.132Z,52.99
2022-12-27T16:45:54.140Z,53.06
2022-12-27T16:48:23.864Z,53.58
2022-12-27T16:51:11.934Z,53.48
2022-12-27T16:53:48.356Z,53.97
2022-12-27T16:56:24.131Z,54.77
2022-12-27T16:58:50.472Z,54.31
2022-12-27T17:01:25.925Z,53.80
2022-12-27T17:03:52.839Z,55.11
2022-12-27T17:09:10.501Z,55.37
2022-12-27T17:11:38.997Z,56.33
2022-12-27T17:14:15.424Z,55.99
2022-12-27T17:16:43.193Z,56.01
2022-12-27T17:19:29.114Z,56.02
2022-12-27T17:21:56.697Z,56.13
2022-12-27T17:24:23.251Z,56.30
2022-12-27T17:26:58.106Z,56.20
2022-12-27T17:29:29.825Z,56.56
2022-12-27T17:32:08.295Z,56.26
2022-12-27T17:34:44.574Z,56.13
2022-12-27T17:37:14.069Z,56.60
2022-12-27T17:39:59.294Z,56.21
2022-12-27T17:42:47.214Z,55.98
2022-12-27T17:45:33.935Z,56.14
2022-12-27T17:48:06.295Z,55.87
2022-12-27T17:50:32.685Z,56.36
2022-12-27T17:53:21.380Z,56.17
2022-12-27T17:56:17.437Z,55.99
2022-12-27T17:58:43.759Z,56.20
2022-12-27T18:01:10.138Z,55.83
2022-12-27T18:03:39.136Z,55.42
2022-12-27T18:06:05.481Z,55.29
2022-12-27T18:08:33.965Z,55.61
2022-12-27T18:11:00.603Z,55.41
2022-12-27T18:13:27.561Z,55.78
2022-12-27T18:15:53.887Z,55.26
2022-12-27T18:18:24.221Z,55.51
2022-12-27T18:20:57.402Z,55.51
2022-12-27T18:23:23.721Z,55.54
2022-12-27T18:25:51.575Z,55.21
2022-12-27T18:28:28.699Z,55.80
2022-12-27T18:30:57.570Z,55.69
2022-12-27T18:33:42.956Z,55.26
2022-12-27T18:36:09.774Z,55.42
2022-12-27T18:38:40.088Z,55.68
2022-12-27T18:41:07.174Z,55.74
2022-12-27T18:43:33.495Z,55.36
2022-12-27T18:45:59.871Z,55.75
2022-12-27T18:48:27.049Z,55.75
2022-12-27T18:50:53.449Z,55.69
2022-12-27T18:53:23.575Z,55.80
2022-12-27T18:56:05.967Z,56.03
2022-12-27T18:58:32.542Z,50.50
2022-12-27T19:01:17.762Z,42.83
2022-12-27T19:03:44.175Z,44.02
2022-12-27T19:06:11.657Z,43.16
2022-12-27T19:08:38.744Z,40.16
2022-12-27T19:11:05.499Z,43.95
2022-12-27T19:13:45.999Z,42.26
2022-12-27T19:16:22.944Z,42.46
2022-12-27T19:18:54.400Z,41.90
2022-12-27T19:21:31.913Z,42.14
2022-12-27T19:23:58.249Z,42.23
2022-12-27T19:26:25.337Z,42.48
2022-12-27T19:29:00.810Z,43.15
2022-12-27T19:31:27.171Z,44.11
2022-12-27T19:33:54.675Z,44.71
2022-12-27T19:36:33.861Z,46.38
2022-12-27T19:39:00.217Z,45.93
2022-12-27T19:41:26.566Z,46.55
2022-12-27T19:43:52.901Z,47.28
2022-12-27T19:46:19.699Z,47.44
2022-12-27T19:49:07.701Z,47.85
2022-12-27T19:51:32.645Z,48.30
2022-12-27T19:53:58.995Z,48.28
2022-12-27T19:56:25.317Z,48.40
2022-12-27T19:58:51.640Z,48.74
2022-12-27T20:01:18.080Z,48.88
2022-12-27T20:03:44.619Z,49.02
2022-12-27T20:06:20.849Z,49.31
2022-12-27T20:08:51.639Z,49.61
2022-12-27T20:11:18.947Z,49.79
2022-12-27T20:13:45.284Z,50.09
2022-12-27T20:16:12.277Z,50.31
2022-12-27T20:18:41.876Z,50.39
2022-12-27T20:21:11.486Z,50.71
2022-12-27T20:23:37.856Z,50.70
2022-12-27T20:26:04.173Z,50.81
2022-12-27T20:28:30.572Z,50.93
2022-12-27T20:30:56.921Z,51.07
2022-12-27T20:33:23.270Z,51.02
2022-12-27T20:35:58.532Z,51.13
2022-12-27T20:38:27.961Z,51.31
2022-12-27T20:40:54.363Z,51.38
2022-12-27T20:43:20.801Z,51.37
2022-12-27T20:45:47.174Z,51.55
2022-12-27T20:48:13.576Z,51.78
2022-12-27T20:50:39.933Z,51.83
2022-12-27T20:53:06.354Z,51.87
2022-12-27T20:55:34.229Z,51.79
2022-12-27T20:58:00.849Z,52.02
2022-12-27T21:00:27.330Z,52.01
2022-12-27T21:02:53.821Z,52.49
2022-12-27T21:05:20.374Z,52.20
2022-12-27T21:07:46.706Z,52.03
2022-12-27T21:10:13.088Z,52.31
2022-12-27T21:12:39.483Z,51.94
2022-12-27T21:15:08.159Z,52.16
2022-12-27T21:17:34.583Z,52.45
2022-12-27T21:20:00.908Z,52.63
2022-12-27T21:22:27.287Z,52.66
2022-12-27T21:24:53.635Z,52.57
2022-12-27T21:27:20.063Z,52.70
2022-12-27T21:29:52.361Z,52.86
2022-12-27T21:32:21.395Z,52.74
2022-12-27T21:34:50.616Z,52.92
2022-12-27T21:37:16.934Z,52.92
2022-12-27T21:39:43.270Z,52.90
2022-12-27T21:42:10.860Z,53.06
2022-12-27T21:44:38.726Z,53.19
2022-12-27T21:47:05.525Z,53.12
2022-12-27T21:49:31.896Z,53.08
2022-12-27T21:51:58.222Z,53.21
2022-12-27T21:54:24.545Z,53.36
2022-12-27T21:56:50.872Z,53.18
2022-12-27T21:59:17.202Z,52.86
2022-12-27T22:01:51.755Z,52.89
2022-12-27T22:04:19.790Z,53.35
2022-12-27T22:06:47.420Z,53.41
2022-12-27T22:09:14.220Z,53.48
2022-12-27T22:11:40.588Z,53.66
2022-12-27T22:14:06.965Z,53.60
2022-12-27T22:16:34.194Z,53.70
2022-12-27T22:19:00.542Z,53.46
2022-12-27T22:21:27.864Z,53.51
2022-12-27T22:23:54.583Z,53.45
2022-12-27T22:26:24.785Z,53.34
2022-12-27T22:28:51.119Z,53.37
2022-12-27T22:31:18.244Z,53.44
2022-12-27T22:33:47.199Z,53.49
2022-12-27T22:36:14.394Z,53.42
2022-12-27T22:38:40.876Z,53.28
2022-12-27T22:41:13.991Z,53.56
2022-12-27T22:43:40.518Z,53.26
2022-12-27T22:46:07.543Z,53.37
2022-12-27T22:48:34.005Z,53.22
2022-12-27T22:51:05.472Z,53.12
2022-12-27T22:53:31.796Z,53.03
2022-12-27T22:55:58.123Z,52.91
2022-12-27T22:58:26.085Z,53.08
2022-12-27T23:00:52.410Z,53.09
2022-12-27T23:03:18.741Z,53.13
2022-12-27T23:05:45.092Z,53.04
2022-12-27T23:08:11.469Z,53.08
2022-12-27T23:10:38.300Z,53.23
2022-12-27T23:13:04.621Z,53.23
2022-12-27T23:15:30.966Z,53.19
2022-12-27T23:17:57.308Z,53.07
2022-12-27T23:20:23.643Z,53.20
2022-12-27T23:22:49.963Z,53.26
2022-12-27T23:25:16.357Z,53.28
2022-12-27T23:27:42.704Z,53.18
2022-12-27T23:30:09.318Z,53.21
2022-12-27T23:32:35.676Z,53.27
2022-12-27T23:35:02.120Z,53.30
2022-12-27T23:37:28.433Z,53.44
2022-12-27T23:39:54.752Z,53.50
2022-12-27T23:42:21.070Z,53.44
2022-12-27T23:44:47.419Z,53.50
2022-12-27T23:47:13.736Z,53.53
2022-12-27T23:49:40.073Z,53.48
2022-12-27T23:52:06.392Z,53.49
2022-12-27T23:54:32.726Z,53.47
2022-12-27T23:57:19.410Z,53.51
2022-12-27T23:59:45.403Z,53.36
